Time;durP1;ratioP1;P1;durP2;ratioP2;P2;SDS_P1;SDS_P2;PMS_P1;PMS_P2;Temp;Humidity;BMP_temperature;BMP_pressure;BME280_temperature;BME280_humidity;BME280_pressure;Samples;Min_cycle;Max_cycle;Signal;HPM_P1;HPM_P2
2023/12/28 00:01:39;;;;;;;13.25;3.17;;;;;;;13.97;74.51;100792.19;5011897;28;20038;-46
2023/12/28 00:04:05;;;;;;;9.70;3.10;;;;;;;14.21;73.63;100794.75;5013179;28;20030;-48
2023/12/28 00:06:30;;;;;;;9.13;3.13;;;;;;;14.27;73.08;100796.53;5012728;28;20066;-47
2023/12/28 00:08:55;;;;;;;8.45;3.40;;;;;;;14.31;72.70;100797.38;5012893;28;20046;-43
2023/12/28 00:11:21;;;;;;;9.63;2.85;;;;;;;14.71;71.36;100775.38;5013735;28;20038;-45
2023/12/28 00:13:46;;;;;;;9.27;3.17;;;;;;;14.42;72.28;100793.88;5011966;28;20030;-48
2023/12/28 00:16:11;;;;;;;11.27;3.25;;;;;;;14.48;72.40;100812.22;5013182;28;20088;-45
2023/12/28 00:18:36;;;;;;;13.05;3.40;;;;;;;14.21;72.96;100793.88;5012726;28;20084;-44
2023/12/28 00:21:02;;;;;;;12.65;3.28;;;;;;;14.21;73.48;100792.13;5012247;28;20030;-43
2023/12/28 00:23:27;;;;;;;11.18;3.65;;;;;;;14.27;73.08;100793.91;5012999;28;20025;-47
2023/12/28 00:25:52;;;;;;;10.50;3.30;;;;;;;14.03;73.46;100802.66;5012460;28;20038;-50
2023/12/28 00:28:18;;;;;;;9.23;3.40;;;;;;;14.45;72.17;100799.13;5013602;28;20057;-47
2023/12/28 00:30:43;;;;;;;9.98;3.35;;;;;;;13.69;75.39;100796.63;5012906;28;20045;-47
2023/12/28 00:33:08;;;;;;;9.13;3.60;;;;;;;14.34;73.06;100794.72;5012349;28;20567;-45
2023/12/28 00:35:34;;;;;;;6.43;3.42;;;;;;;13.87;74.77;100805.31;5012011;28;20042;-44
2023/12/28 00:37:59;;;;;;;10.07;3.55;;;;;;;13.96;73.50;100802.72;5011661;28;20030;-47
2023/12/28 00:40:24;;;;;;;10.80;3.53;;;;;;;13.89;73.78;100814.06;5012988;28;20034;-43
2023/12/28 00:42:50;;;;;;;8.75;3.25;;;;;;;13.94;74.20;100809.69;5012041;28;20041;-44
2023/12/28 00:45:15;;;;;;;11.05;3.20;;;;;;;13.87;74.07;100800.97;5012634;28;20087;-47
2023/12/28 00:47:43;;;;;;;10.85;3.08;;;;;;;14.18;72.81;100801.78;5012389;28;20030;-46
2023/12/28 00:50:08;;;;;;;9.52;3.13;;;;;;;14.09;73.10;100800.03;5011257;28;20042;-46
2023/12/28 00:52:34;;;;;;;10.20;3.08;;;;;;;14.16;72.81;100801.78;5012294;28;20048;-46
2023/12/28 00:54:59;;;;;;;10.13;3.28;;;;;;;13.80;73.97;100807.94;5011773;28;20038;-45
2023/12/28 00:57:24;;;;;;;7.30;2.95;;;;;;;14.01;73.48;100800.94;5012538;28;20488;-47
2023/12/28 00:59:50;;;;;;;12.43;3.05;;;;;;;14.10;72.53;100785.19;5011938;28;20069;-47
2023/12/28 01:02:15;;;;;;;8.82;3.15;;;;;;;14.21;72.18;100786.03;5011944;28;20056;-48
2023/12/28 01:04:40;;;;;;;10.55;3.15;;;;;;;14.09;72.59;100797.41;5011008;28;20069;-47
2023/12/28 01:07:06;;;;;;;8.30;2.90;;;;;;;14.33;71.21;100793.00;5012636;28;20076;-45
2023/12/28 01:09:32;;;;;;;7.10;3.00;;;;;;;14.28;71.49;100800.88;5012675;28;20424;-43
2023/12/28 01:11:58;;;;;;;9.63;3.03;;;;;;;14.06;72.14;100794.81;5011986;28;20053;-43
2023/12/28 01:14:23;;;;;;;9.77;2.78;;;;;;;14.00;72.53;100788.72;5011576;28;20045;-46
2023/12/28 01:16:48;;;;;;;12.55;3.15;;;;;;;14.30;71.47;100800.88;5011869;28;20034;-48
2023/12/28 01:19:13;;;;;;;8.13;2.90;;;;;;;14.18;71.73;100788.66;5013569;28;20042;-45
2023/12/28 01:21:39;;;;;;;7.82;2.80;;;;;;;13.84;72.25;100794.88;5013837;28;20045;-47
2023/12/28 01:24:04;;;;;;;9.52;2.90;;;;;;;13.84;73.08;100800.09;5012494;28;20511;-44
2023/12/28 01:26:30;;;;;;;10.40;3.40;;;;;;;13.63;73.36;100801.84;5012734;28;20091;-44
2023/12/28 01:28:56;;;;;;;9.60;2.97;;;;;;;14.38;71.05;100786.91;5011609;28;20485;-48
2023/12/28 01:31:22;;;;;;;7.63;3.00;;;;;;;13.95;72.53;100800.97;5011943;28;20038;-45
2023/12/28 01:33:47;;;;;;;9.07;3.25;;;;;;;13.51;74.25;100796.63;5010847;28;20034;-47
2023/12/28 01:36:20;;;;;;;9.43;3.40;;;;;;;14.20;72.10;100805.28;5011988;28;20044;-48
2023/12/28 01:38:46;;;;;;;11.32;3.03;;;;;;;14.28;70.63;100807.84;5011096;28;20116;-50
2023/12/28 01:41:12;;;;;;;8.77;2.90;;;;;;;13.99;72.29;100807.94;5010468;28;20085;-45
2023/12/28 01:43:38;;;;;;;10.05;3.15;;;;;;;14.15;72.12;100809.63;5010962;28;20038;-52
2023/12/28 01:46:04;;;;;;;8.70;3.30;;;;;;;14.12;72.11;100821.03;5010170;28;20413;-46
2023/12/28 01:48:30;;;;;;;7.80;3.00;;;;;;;13.70;73.44;100821.06;5011345;28;20043;-45
2023/12/28 01:50:56;;;;;;;8.30;3.30;;;;;;;13.90;72.92;100800.09;5010997;28;20049;-45
2023/12/28 01:53:22;;;;;;;10.65;3.10;;;;;;;13.92;73.21;100822.78;5011062;28;20040;-46
2023/12/28 01:55:48;;;;;;;12.32;3.20;;;;;;;13.82;73.47;100827.19;5011065;28;20034;-45
2023/12/28 01:58:13;;;;;;;9.27;3.15;;;;;;;13.78;73.49;100824.56;5011383;28;20403;-44
2023/12/28 02:00:39;;;;;;;10.95;3.40;;;;;;;13.43;73.52;100813.19;5011093;28;20038;-48
2023/12/28 02:03:06;;;;;;;9.18;3.30;;;;;;;14.13;71.78;100833.25;5010878;28;20069;-47
2023/12/28 02:05:32;;;;;;;9.48;3.10;;;;;;;13.90;72.74;100821.94;5011324;28;20061;-46
2023/12/28 02:07:58;;;;;;;10.63;3.35;;;;;;;13.80;72.90;100828.91;5010632;28;20084;-45
2023/12/28 02:10:23;;;;;;;9.38;3.30;;;;;;;13.64;73.09;100832.41;5011202;28;20053;-45
2023/12/28 02:12:49;;;;;;;10.13;3.40;;;;;;;13.89;72.74;100827.19;5010098;28;20038;-46
2023/12/28 02:15:15;;;;;;;10.10;3.10;;;;;;;13.71;72.78;100818.47;5011193;28;20061;-49
2023/12/28 02:17:50;;;;;;;8.20;2.70;;;;;;;13.74;71.95;100800.09;5010364;28;20145;-47
2023/12/28 02:20:19;;;;;;;10.20;2.75;;;;;;;13.98;71.61;100801.81;5010833;28;20042;-45
2023/12/28 02:22:45;;;;;;;10.38;2.70;;;;;;;14.05;70.90;100802.69;5007932;28;20125;-46
2023/12/28 02:25:14;;;;;;;15.98;3.40;;;;;;;13.86;71.42;100808.81;5011511;28;20087;-48
2023/12/28 02:27:46;;;;;;;9.82;2.88;;;;;;;13.49;72.88;100810.56;5010992;28;20072;-51
2023/12/28 02:30:12;;;;;;;8.30;2.60;;;;;;;13.62;72.28;100799.22;5011192;28;20045;-45
2023/12/28 02:33:10;;;;;;;9.07;2.58;;;;;;;13.23;73.82;100808.81;5010150;28;20554;-47
2023/12/28 02:35:57;;;;;;;7.65;2.20;;;;;;;13.62;72.37;100814.94;5010670;28;20453;-47
2023/12/28 02:38:24;;;;;;;10.90;2.67;;;;;;;13.36;73.05;100825.41;5010648;28;20096;-48
2023/12/28 02:40:50;;;;;;;7.55;2.85;;;;;;;13.99;70.85;100827.16;5010155;28;20088;-48
2023/12/28 02:43:15;;;;;;;10.20;2.72;;;;;;;14.13;70.00;100824.53;5010466;28;20034;-44
2023/12/28 02:45:41;;;;;;;8.77;2.60;;;;;;;13.89;70.95;100835.91;5008468;28;20044;-44
2023/12/28 02:48:06;;;;;;;9.10;2.67;;;;;;;13.59;71.34;100828.94;5010620;28;20038;-43
2023/12/28 02:50:33;;;;;;;10.48;2.88;;;;;;;13.32;73.38;100816.69;5010580;28;20096;-46
2023/12/28 02:52:59;;;;;;;10.60;2.50;;;;;;;13.52;72.77;100826.31;5009782;28;20026;-43
2023/12/28 02:55:24;;;;;;;8.05;2.92;;;;;;;13.61;71.35;100821.94;5010428;28;20065;-45
2023/12/28 02:57:51;;;;;;;8.60;2.60;;;;;;;13.82;70.82;100814.06;5009547;28;20096;-45
2023/12/28 03:00:16;;;;;;;11.05;2.58;;;;;;;13.33;72.57;100814.94;5010537;28;20458;-46
2023/12/28 03:02:42;;;;;;;10.52;3.13;;;;;;;13.55;71.69;100819.31;5009947;28;20038;-46
2023/12/28 03:05:08;;;;;;;9.05;2.50;;;;;;;13.48;71.41;100814.09;5010380;28;20033;-45
2023/12/28 03:07:34;;;;;;;10.93;2.80;;;;;;;13.26;72.54;100818.41;5010377;28;20136;-46
2023/12/28 03:10:00;;;;;;;9.70;2.72;;;;;;;13.75;71.14;100832.41;5010083;28;20125;-49
2023/12/28 03:12:25;;;;;;;8.38;2.70;;;;;;;13.50;72.06;100814.94;5010347;28;20068;-46
2023/12/28 03:14:50;;;;;;;7.47;2.60;;;;;;;13.73;71.56;100803.59;5008631;28;20597;-45
2023/12/28 03:17:16;;;;;;;9.15;2.50;;;;;;;13.23;73.08;100800.97;5010375;28;20042;-45
2023/12/28 03:19:41;;;;;;;9.75;2.22;;;;;;;13.80;71.16;100797.47;5010111;28;20030;-44
2023/12/28 03:22:06;;;;;;;11.05;2.60;;;;;;;13.69;70.94;100812.34;5011848;28;20052;-44
2023/12/28 03:24:32;;;;;;;13.80;2.58;;;;;;;13.38;72.11;100790.50;5015528;28;20045;-47
2023/12/28 03:26:57;;;;;;;12.80;2.97;;;;;;;13.43;71.55;100803.59;5014870;28;20396;-45
2023/12/28 03:29:25;;;;;;;9.18;2.30;;;;;;;13.58;71.04;100800.13;5016245;28;20042;-46
2023/12/28 03:31:50;;;;;;;8.02;2.40;;;;;;;13.64;71.07;100787.88;5015153;28;20034;-44
2023/12/28 03:34:16;;;;;;;10.77;2.50;;;;;;;13.19;72.52;100795.72;5014136;28;20525;-43
2023/12/28 03:36:41;;;;;;;9.52;2.28;;;;;;;13.77;70.37;100810.59;5013291;28;20061;-44
2023/12/28 03:39:08;;;;;;;11.98;2.42;;;;;;;13.54;70.90;100795.75;5013814;28;20030;-48
2023/12/28 03:41:33;;;;;;;13.45;2.70;;;;;;;13.43;70.95;100780.03;5013979;28;20711;-44
2023/12/28 03:43:58;;;;;;;11.77;2.50;;;;;;;13.53;71.11;100794.00;5013120;28;20030;-43
2023/12/28 03:46:24;;;;;;;13.43;2.30;;;;;;;13.49;70.92;100777.41;5012548;28;20034;-45
2023/12/28 03:48:49;;;;;;;10.55;2.38;;;;;;;13.73;70.08;100800.97;5013256;28;20478;-49
2023/12/28 03:51:15;;;;;;;10.85;2.30;;;;;;;13.68;69.96;100797.47;5013752;28;20115;-48
2023/12/28 03:53:41;;;;;;;15.70;2.55;;;;;;;13.50;70.48;100792.25;5012901;28;20061;-46
2023/12/28 03:56:07;;;;;;;10.00;2.22;;;;;;;13.64;70.04;100792.25;5012287;28;20026;-47
2023/12/28 03:58:32;;;;;;;12.98;2.47;;;;;;;13.81;68.89;100793.09;5013675;28;20034;-44
2023/12/28 04:00:58;;;;;;;11.35;2.13;;;;;;;13.59;69.43;100804.47;5013344;28;20034;-48
2023/12/28 04:03:23;;;;;;;11.00;2.20;;;;;;;13.70;69.04;100807.97;5013654;28;20544;-44
2023/12/28 04:05:48;;;;;;;11.60;2.30;;;;;;;13.99;69.06;100806.19;5011862;28;20037;-45
2023/12/28 04:08:14;;;;;;;13.82;2.25;;;;;;;14.05;67.67;100795.69;5014098;28;20073;-48
2023/12/28 04:10:39;;;;;;;12.82;2.30;;;;;;;13.56;69.08;100780.91;5013619;28;20065;-44
2023/12/28 04:13:05;;;;;;;17.05;2.35;;;;;;;13.92;68.79;100798.31;5013502;28;20570;-45
2023/12/28 04:15:30;;;;;;;10.73;2.13;;;;;;;14.58;66.13;100797.28;5013618;28;20403;-44
2023/12/28 04:17:56;;;;;;;14.38;2.47;;;;;;;14.28;66.66;100800.88;5013184;28;20473;-45
2023/12/28 04:20:21;;;;;;;13.13;2.53;;;;;;;14.03;67.65;100788.69;5013278;28;20049;-43
2023/12/28 04:22:47;;;;;;;10.27;1.90;;;;;;;14.22;67.04;100807.00;5013559;28;20046;-46
2023/12/28 04:25:13;;;;;;;13.93;2.25;;;;;;;14.25;67.12;100807.88;5014687;28;20374;-52
2023/12/28 04:27:39;;;;;;;13.93;2.00;;;;;;;14.08;67.65;100805.31;5013691;28;20038;-44
2023/12/28 04:30:05;;;;;;;8.43;1.70;;;;;;;14.20;66.64;100815.78;5013956;28;20443;-50
2023/12/28 04:32:33;;;;;;;14.38;2.17;;;;;;;14.48;65.92;100809.59;5013720;28;20045;-50
2023/12/28 04:34:58;;;;;;;13.93;2.22;;;;;;;14.13;66.68;100801.81;5010896;28;20124;-48
2023/12/28 04:37:26;;;;;;;14.43;2.40;;;;;;;13.69;68.18;100798.34;5013182;28;20721;-44
2023/12/28 04:39:52;;;;;;;10.27;2.30;;;;;;;14.22;66.68;100814.88;5012673;28;20700;-44
2023/12/28 04:42:18;;;;;;;13.75;2.17;;;;;;;14.11;67.11;100790.44;5013249;28;20038;-44
2023/12/28 04:44:43;;;;;;;12.02;2.30;;;;;;;13.92;66.91;100793.97;5012244;28;20049;-47
2023/12/28 04:47:09;;;;;;;11.60;1.95;;;;;;;14.04;67.02;100801.81;5012946;28;20042;-46
2023/12/28 04:49:34;;;;;;;14.50;2.30;;;;;;;14.32;65.79;100813.13;5012454;28;20050;-46
2023/12/28 04:52:00;;;;;;;16.38;2.20;;;;;;;14.12;67.09;100818.41;5012566;28;20037;-50
2023/12/28 04:54:26;;;;;;;9.60;2.17;;;;;;;14.13;66.64;100817.53;5012443;28;20404;-47
2023/12/28 04:56:51;;;;;;;14.20;2.17;;;;;;;14.15;66.54;100821.00;5011998;28;20034;-44
2023/12/28 04:59:16;;;;;;;14.00;2.30;;;;;;;14.22;66.32;100814.00;5012745;28;20470;-44
2023/12/28 05:01:42;;;;;;;16.13;2.33;;;;;;;14.16;66.01;100800.91;5012299;28;20038;-45
2023/12/28 05:04:08;;;;;;;15.75;2.17;;;;;;;14.51;65.05;100808.72;5012403;28;20033;-50
2023/12/28 05:06:33;;;;;;;11.57;1.88;;;;;;;14.29;65.93;100826.22;5012153;28;20057;-44
2023/12/28 05:08:58;;;;;;;12.90;2.30;;;;;;;14.36;65.97;100817.47;5010541;28;20056;-49
2023/12/28 05:11:24;;;;;;;18.92;2.28;;;;;;;14.05;66.69;100826.28;5012299;28;20037;-45
2023/12/28 05:13:49;;;;;;;16.65;2.53;;;;;;;14.59;64.42;100815.66;5011573;28;20041;-45
2023/12/28 05:16:14;;;;;;;17.88;2.22;;;;;;;14.06;66.36;100815.78;5012014;28;20030;-49
2023/12/28 05:18:40;;;;;;;16.75;2.55;;;;;;;14.03;66.31;100831.50;5011473;28;20088;-45
2023/12/28 05:21:05;;;;;;;14.70;2.20;;;;;;;14.11;66.22;100828.88;5012260;28;20045;-47
2023/12/28 05:23:30;;;;;;;9.80;1.88;;;;;;;14.58;64.38;100831.41;5011527;28;20041;-45
2023/12/28 05:25:55;;;;;;;12.55;2.15;;;;;;;14.61;64.47;100828.78;5011418;28;20038;-47
2023/12/28 05:28:21;;;;;;;16.70;2.55;;;;;;;14.23;65.53;100836.72;5011971;28;20074;-50
2023/12/28 05:30:46;;;;;;;15.98;2.08;;;;;;;14.46;64.80;100834.94;5011345;28;20038;-43
2023/12/28 05:33:12;;;;;;;16.45;2.42;;;;;;;14.46;64.75;100820.94;5009663;28;20107;-46
2023/12/28 05:35:37;;;;;;;17.27;2.55;;;;;;;14.09;65.81;100834.13;5011107;28;20768;-50
2023/12/28 05:38:02;;;;;;;15.10;2.33;;;;;;;14.27;65.19;100825.38;5011878;28;20033;-44
2023/12/28 05:40:28;;;;;;;22.27;2.25;;;;;;;14.66;64.14;100803.41;5011939;28;20088;-49
2023/12/28 05:42:53;;;;;;;16.60;2.47;;;;;;;13.90;66.03;100797.47;5010988;28;20042;-44
2023/12/28 05:45:18;;;;;;;18.02;2.40;;;;;;;14.57;64.44;100816.56;5010038;28;20492;-44
2023/12/28 05:47:44;;;;;;;13.30;2.33;;;;;;;14.45;64.81;100822.72;5009316;28;20419;-45
2023/12/28 05:50:09;;;;;;;13.02;1.98;;;;;;;14.42;64.23;100811.34;5010399;28;20384;-45
2023/12/28 05:52:35;;;;;;;23.63;3.08;;;;;;;14.56;64.09;100823.56;5010122;28;20126;-45
2023/12/28 05:55:00;;;;;;;14.77;2.55;;;;;;;14.48;64.11;100822.69;5009235;28;20036;-48
2023/12/28 05:57:29;;;;;;;17.48;2.70;;;;;;;14.26;64.45;100826.25;5010448;28;20034;-44
2023/12/28 05:59:55;;;;;;;16.85;2.83;;;;;;;14.49;64.37;100827.06;5009238;28;20522;-49
2023/12/28 06:02:20;;;;;;;17.98;3.03;;;;;;;14.26;65.14;100821.00;5011417;28;20113;-47
2023/12/28 06:04:45;;;;;;;13.00;2.50;;;;;;;14.71;63.85;100824.34;5009238;28;20068;-45
2023/12/28 06:07:11;;;;;;;20.38;3.50;;;;;;;14.57;64.13;100830.56;5009894;28;20091;-44
2023/12/28 06:09:38;;;;;;;20.00;2.47;;;;;;;14.35;64.50;100838.44;5009282;28;20045;-44
2023/12/28 06:12:04;;;;;;;21.27;2.92;;;;;;;14.22;65.21;100842.84;5009717;28;20053;-45
2023/12/28 06:14:30;;;;;;;18.40;2.67;;;;;;;14.49;64.56;100836.69;4993194;28;20053;-46
2023/12/28 06:16:55;;;;;;;20.67;2.80;;;;;;;14.36;64.68;100856.81;5008973;28;21903;-47
2023/12/28 06:19:21;;;;;;;14.35;2.67;;;;;;;14.12;64.76;100855.09;5010928;28;20099;-44
2023/12/28 06:21:47;;;;;;;22.08;2.40;;;;;;;14.52;64.03;100844.53;5011011;28;20034;-45
2023/12/28 06:24:13;;;;;;;25.30;2.83;;;;;;;14.30;64.48;100843.69;5010432;28;20049;-45
2023/12/28 06:26:43;;;;;;;19.48;2.72;;;;;;;14.07;65.08;100835.00;5010609;28;20396;-44
2023/12/28 06:29:09;;;;;;;16.48;2.50;;;;;;;14.37;64.29;100831.44;5010939;28;20041;-46
2023/12/28 06:31:36;;;;;;;20.08;2.35;;;;;;;14.15;64.91;100846.34;5010011;28;20068;-45
2023/12/28 06:34:04;;;;;;;19.10;2.80;;;;;;;14.54;64.10;100841.03;5010034;28;20033;-44
2023/12/28 06:36:30;;;;;;;21.88;2.72;;;;;;;14.23;65.09;100837.59;5010398;28;20045;-48
2023/12/28 06:38:56;;;;;;;18.05;2.30;;;;;;;14.18;64.44;100868.19;5009295;28;20071;-44
2023/12/28 06:41:21;;;;;;;19.92;2.78;;;;;;;14.47;64.14;100851.56;4993296;28;20125;-44
2023/12/28 06:43:46;;;;;;;23.90;3.20;;;;;;;14.03;65.31;100867.31;5010256;28;20030;-45
2023/12/28 06:46:12;;;;;;;20.73;2.85;;;;;;;13.95;65.84;100854.25;5011302;28;20102;-47
2023/12/28 06:48:40;;;;;;;21.98;2.38;;;;;;;14.07;65.50;100869.97;5010395;28;20042;-45
2023/12/28 06:51:09;;;;;;;21.05;3.08;;;;;;;13.97;65.15;100883.06;5010552;28;20053;-45
2023/12/28 06:53:34;;;;;;;18.25;2.75;;;;;;;14.00;65.35;100883.06;4993249;28;20040;-45
2023/12/28 06:55:59;;;;;;;19.85;2.55;;;;;;;13.91;65.25;100877.81;4991537;28;20108;-47
2023/12/28 06:58:25;;;;;;;18.70;2.50;;;;;;;14.10;65.14;100882.19;5010584;28;20053;-45
2023/12/28 07:00:51;;;;;;;21.13;2.65;;;;;;;14.13;64.93;100882.19;5010080;28;20087;-45
2023/12/28 07:03:16;;;;;;;25.58;2.70;;;;;;;13.88;65.68;100876.09;5008813;28;20037;-46
2023/12/28 07:05:42;;;;;;;18.80;2.60;;;;;;;14.27;64.18;100887.44;5008139;28;20037;-45
2023/12/28 07:08:08;;;;;;;20.88;3.53;;;;;;;13.57;67.03;100890.91;5009162;28;20042;-45
2023/12/28 07:10:34;;;;;;;16.83;2.80;;;;;;;13.74;66.19;100897.03;5010486;28;20037;-45
2023/12/28 07:12:59;;;;;;;28.20;3.17;;;;;;;13.65;66.41;100896.19;4992248;28;20100;-46
2023/12/28 07:15:25;;;;;;;19.30;2.85;;;;;;;13.82;66.49;100897.06;5022828;23;20221;-45
2023/12/28 07:17:50;;;;;;;21.08;2.90;;;;;;;14.08;65.49;100899.69;5010668;28;20045;-44
2023/12/28 07:20:15;;;;;;;21.02;3.38;;;;;;;13.60;66.30;100903.16;5011295;28;20048;-46
2023/12/28 07:22:41;;;;;;;18.23;2.88;;;;;;;14.17;65.17;100911.03;5009235;28;20121;-45
2023/12/28 07:25:07;;;;;;;20.38;2.75;;;;;;;14.26;64.50;100915.41;5010294;28;20064;-47
2023/12/28 07:27:33;;;;;;;18.67;2.65;;;;;;;14.14;64.77;100913.66;5020770;28;20049;-44
2023/12/28 07:30:00;;;;;;;16.92;2.92;;;;;;;14.35;64.21;100919.75;5024307;28;20048;-45
2023/12/28 07:32:28;;;;;;;22.67;2.85;;;;;;;14.37;64.07;100913.66;5024590;28;20034;-47
2023/12/28 07:34:53;;;;;;;17.05;2.35;;;;;;;14.16;65.10;100913.63;5008563;28;20041;-47
2023/12/28 07:37:19;;;;;;;21.77;3.25;;;;;;;14.58;63.45;100910.97;5010325;28;20030;-44
2023/12/28 07:39:44;;;;;;;18.88;2.72;;;;;;;13.97;65.59;100920.63;5009542;28;20042;-44
2023/12/28 07:42:10;;;;;;;16.15;2.85;;;;;;;13.94;65.10;100904.03;5008639;28;20033;-46
2023/12/28 07:44:35;;;;;;;20.25;2.67;;;;;;;14.33;64.50;100922.38;5009966;28;20034;-44
2023/12/28 07:47:01;;;;;;;17.45;2.28;;;;;;;13.94;65.69;100925.00;5008124;28;20092;-46
2023/12/28 07:49:27;;;;;;;24.00;2.80;;;;;;;14.19;64.71;100913.66;5008240;28;20061;-48
2023/12/28 07:51:52;;;;;;;15.90;2.42;;;;;;;13.99;65.01;100918.00;5007989;28;20421;-45
2023/12/28 07:54:17;;;;;;;15.98;2.75;;;;;;;13.96;65.75;100924.16;5009038;28;20061;-44
2023/12/28 07:56:43;;;;;;;19.02;2.63;;;;;;;13.96;65.51;100913.66;5009116;28;20073;-45
2023/12/28 07:59:09;;;;;;;19.45;3.00;;;;;;;14.13;64.87;100927.66;5009518;28;20041;-45
2023/12/28 08:01:34;;;;;;;23.45;3.00;;;;;;;13.92;65.45;100930.25;5009442;28;20049;-44
2023/12/28 08:04:01;;;;;;;20.30;2.42;;;;;;;14.07;64.95;100925.03;5007203;28;20034;-45
2023/12/28 08:06:26;;;;;;;19.42;2.80;;;;;;;14.13;65.27;100932.00;5008270;28;20030;-47
2023/12/28 08:08:53;;;;;;;26.38;3.28;;;;;;;14.10;65.05;100917.13;5008898;28;20079;-44
2023/12/28 08:11:19;;;;;;;22.85;2.97;;;;;;;13.96;65.06;100925.91;5013511;28;20045;-45
2023/12/28 08:13:44;;;;;;;12.98;2.25;;;;;;;13.86;66.02;100938.09;5012211;28;20037;-46
2023/12/28 08:16:09;;;;;;;22.92;3.15;;;;;;;14.26;64.38;100939.00;5011594;28;20049;-44
2023/12/28 08:18:35;;;;;;;21.33;2.95;;;;;;;14.36;64.09;100939.84;5013271;28;20396;-46
2023/12/28 08:21:00;;;;;;;13.50;2.50;;;;;;;14.21;64.64;100933.72;5012969;28;20073;-46
2023/12/28 08:23:25;;;;;;;19.90;2.42;;;;;;;13.98;65.45;100932.88;5011268;28;20037;-44
2023/12/28 08:25:51;;;;;;;16.52;2.78;;;;;;;14.37;64.00;100947.75;5012549;28;20033;-46
2023/12/28 08:28:17;;;;;;;15.32;2.65;;;;;;;13.95;65.58;100945.13;5011862;28;20439;-44
2023/12/28 08:30:42;;;;;;;15.57;2.72;;;;;;;14.61;63.59;100949.47;5012528;28;20041;-45
2023/12/28 08:33:07;;;;;;;16.10;2.42;;;;;;;13.97;65.41;100941.59;5011302;28;20033;-47
2023/12/28 08:35:33;;;;;;;20.10;3.08;;;;;;;14.05;65.33;100950.34;5012753;28;20112;-48
2023/12/28 08:37:58;;;;;;;14.98;2.70;;;;;;;13.77;66.33;100938.09;5012140;28;20053;-45
2023/12/28 08:40:23;;;;;;;18.27;2.50;;;;;;;14.47;63.95;100959.97;5012700;28;20033;-44
2023/12/28 08:42:49;;;;;;;21.33;2.78;;;;;;;14.39;64.54;100961.75;5010850;28;20033;-44
2023/12/28 08:45:14;;;;;;;18.98;2.60;;;;;;;14.34;65.01;100942.47;5012610;28;20034;-44
2023/12/28 08:47:39;;;;;;;15.02;2.30;;;;;;;14.07;66.53;100943.38;5012066;28;20038;-45
2023/12/28 08:50:05;;;;;;;21.95;2.85;;;;;;;14.09;67.56;100962.56;5012565;28;20034;-45
2023/12/28 08:52:31;;;;;;;22.95;3.05;;;;;;;13.94;66.94;100961.72;5011026;28;20037;-46
2023/12/28 08:54:56;;;;;;;12.70;2.47;;;;;;;14.11;66.86;100970.44;5012113;28;20049;-46
2023/12/28 08:57:21;;;;;;;24.60;2.75;;;;;;;13.98;68.86;100953.84;5012630;28;20033;-45
2023/12/28 08:59:46;;;;;;;19.85;3.10;;;;;;;13.63;69.14;100971.25;5012509;28;20084;-44
2023/12/28 09:02:12;;;;;;;22.95;2.97;;;;;;;13.84;69.41;100970.44;5013008;28;20042;-47
2023/12/28 09:04:38;;;;;;;21.70;2.80;;;;;;;14.02;67.60;100965.22;5012124;28;20109;-44
2023/12/28 09:07:04;;;;;;;17.73;2.80;;;;;;;14.15;67.75;100972.19;5012344;28;20085;-46
2023/12/28 09:09:29;;;;;;;17.52;2.95;;;;;;;14.18;66.69;100973.09;5012326;28;20069;-44
2023/12/28 09:11:54;;;;;;;18.27;2.65;;;;;;;14.29;65.71;100978.31;5010858;28;20077;-45
2023/12/28 09:14:20;;;;;;;18.23;2.85;;;;;;;14.18;65.42;100980.06;5012142;28;20058;-45
2023/12/28 09:16:47;;;;;;;23.77;2.78;;;;;;;14.26;65.51;100977.47;5010376;28;20396;-45
2023/12/28 09:19:12;;;;;;;22.92;3.22;;;;;;;13.95;67.18;100987.03;5010826;28;20042;-44
2023/12/28 09:21:38;;;;;;;24.85;3.22;;;;;;;14.38;65.72;100982.72;5011280;28;20454;-44
2023/12/28 09:24:03;;;;;;;19.17;2.80;;;;;;;14.25;65.42;100994.06;5011660;28;20026;-44
2023/12/28 09:26:28;;;;;;;21.25;2.72;;;;;;;14.19;66.12;101003.69;5010447;28;20049;-45
2023/12/28 09:28:54;;;;;;;21.25;2.78;;;;;;;14.50;65.13;100999.34;5010868;28;20030;-45
2023/12/28 09:31:20;;;;;;;20.83;2.92;;;;;;;14.40;65.82;101000.19;5011901;28;20034;-45
2023/12/28 09:33:45;;;;;;;21.27;2.97;;;;;;;14.56;65.21;101007.22;5009611;28;20484;-45
2023/12/28 09:36:12;;;;;;;19.25;2.40;;;;;;;14.21;67.21;100999.28;5011371;28;20087;-44
2023/12/28 09:38:38;;;;;;;24.75;2.90;;;;;;;14.15;68.26;101012.41;4993598;28;20030;-46
2023/12/28 09:41:14;;;;;;;19.48;2.92;;;;;;;13.82;69.93;101018.47;5010233;28;20052;-45
2023/12/28 09:43:44;;;;;;;20.73;2.78;;;;;;;14.42;68.71;101024.69;5011217;28;20045;-48
2023/12/28 09:46:11;;;;;;;23.80;3.65;;;;;;;14.05;69.36;101020.25;5009719;28;20038;-47
2023/12/28 09:48:38;;;;;;;17.00;3.08;;;;;;;13.70;71.19;101018.44;5009055;28;20136;-47
2023/12/28 09:51:04;;;;;;;27.58;3.03;;;;;;;13.69;71.34;101027.16;5010618;28;20025;-46
2023/12/28 09:53:30;;;;;;;23.33;3.50;;;;;;;14.15;70.64;101014.13;5010495;28;20034;-44
2023/12/28 09:55:55;;;;;;;20.73;3.00;;;;;;;13.94;71.14;101022.88;5010140;28;20060;-48
2023/12/28 09:58:21;;;;;;;19.92;2.95;;;;;;;14.06;70.11;101016.75;5009798;28;20111;-45
2023/12/28 10:00:48;;;;;;;22.50;2.78;;;;;;;13.82;70.17;101031.56;5009530;28;20034;-44
2023/12/28 10:03:14;;;;;;;21.67;3.30;;;;;;;13.67;71.07;101018.41;5009239;28;20442;-47
2023/12/28 10:05:45;;;;;;;20.90;2.97;;;;;;;14.06;69.55;101036.00;5009884;28;20040;-46
2023/12/28 10:08:16;;;;;;;17.52;2.50;;;;;;;13.86;69.26;101021.09;5009130;28;20048;-45
2023/12/28 10:10:43;;;;;;;25.80;2.92;;;;;;;14.25;68.25;101030.78;5010458;28;20026;-45
2023/12/28 10:13:10;;;;;;;20.02;3.25;;;;;;;13.94;68.19;101028.09;4993084;28;20030;-47
2023/12/28 10:15:37;;;;;;;22.55;2.95;;;;;;;14.34;66.42;101015.91;5010382;28;20191;-45
2023/12/28 10:18:03;;;;;;;21.92;3.08;;;;;;;14.25;66.11;101022.91;5009006;28;20100;-44
2023/12/28 10:20:29;;;;;;;21.23;2.42;;;;;;;14.41;65.47;101019.44;5011226;28;20046;-46
2023/12/28 10:22:54;;;;;;;16.35;2.75;;;;;;;14.67;64.86;101020.31;5017191;28;20034;-49
2023/12/28 10:25:20;;;;;;;25.65;3.13;;;;;;;14.23;65.30;101028.13;5032049;28;20026;-45
2023/12/28 10:27:45;;;;;;;18.13;2.65;;;;;;;14.86;63.62;101029.03;5032962;28;20022;-43
2023/12/28 10:30:11;;;;;;;24.25;2.60;;;;;;;14.81;63.95;101026.44;5018181;28;20255;-43
2023/12/28 10:32:40;;;;;;;21.42;3.00;;;;;;;14.93;63.45;101022.91;5010057;28;20538;-44
2023/12/28 10:35:05;;;;;;;19.85;2.75;;;;;;;15.44;61.85;101019.22;5008946;28;20030;-47
2023/12/28 10:37:33;;;;;;;19.80;2.67;;;;;;;14.75;63.29;101021.19;5008886;28;20041;-44
2023/12/28 10:39:59;;;;;;;17.42;2.78;;;;;;;14.77;63.80;101026.41;5009765;28;20067;-49
2023/12/28 10:42:42;;;;;;;18.70;3.00;;;;;;;14.66;64.50;101015.94;4992272;28;20037;-46
2023/12/28 10:45:10;;;;;;;24.58;3.00;;;;;;;14.80;63.12;101023.78;5008383;28;20627;-45
2023/12/28 10:47:43;;;;;;;23.88;3.17;;;;;;;14.93;62.56;101009.78;4992179;28;20412;-43
2023/12/28 10:50:11;;;;;;;20.98;2.90;;;;;;;14.89;62.76;101016.75;5008948;28;20084;-43
2023/12/28 10:52:37;;;;;;;23.08;2.85;;;;;;;14.79;62.84;101011.53;5009992;28;20492;-45
2023/12/28 10:55:06;;;;;;;18.15;2.60;;;;;;;14.60;63.70;101013.31;5010513;28;20061;-43
2023/12/28 10:57:55;;;;;;;22.13;3.03;;;;;;;14.69;63.81;101020.31;5010773;28;20061;-47
2023/12/28 11:00:25;;;;;;;20.42;2.72;;;;;;;15.26;61.81;101008.78;5010793;28;20042;-46
2023/12/28 11:02:56;;;;;;;20.63;3.00;;;;;;;15.30;61.96;101014.03;5008278;28;20033;-44
2023/12/28 11:05:23;;;;;;;21.67;3.45;;;;;;;15.31;61.31;101028.91;5008941;28;20164;-43
2023/12/28 11:07:53;;;;;;;18.88;2.80;;;;;;;15.06;62.12;101027.25;5008323;28;20041;-45
2023/12/28 11:10:23;;;;;;;21.98;2.78;;;;;;;15.18;61.80;101027.22;5008909;28;20025;-43
2023/12/28 11:12:50;;;;;;;22.30;2.95;;;;;;;14.86;62.46;101037.78;5008374;28;20755;-44
2023/12/28 11:15:15;;;;;;;21.45;3.38;;;;;;;14.90;62.97;101033.41;4992572;28;20543;-46